Time;durP1;ratioP1;P1;durP2;ratioP2;P2;SDS_P1;SDS_P2;PMS_P1;PMS_P2;Temp;Humidity;BMP_temperature;BMP_pressure;BME280_temperature;BME280_humidity;BME280_pressure;Samples;Min_cycle;Max_cycle;Signal;HPM_P1;HPM_P2
2023/07/01 00:01:22;;;;;;;6.70;3.53;;;18.70;74.80;;;;;;4949601;29;20222;-72
2023/07/01 00:03:48;;;;;;;8.37;3.87;;;18.70;74.90;;;;;;4947103;28;20224;-74
2023/07/01 00:06:14;;;;;;;5.47;3.30;;;18.60;74.90;;;;;;4954053;29;20531;-73
2023/07/01 00:08:40;;;;;;;8.33;3.40;;;18.50;74.90;;;;;;4952937;28;20258;-73
2023/07/01 00:11:07;;;;;;;12.33;4.50;;;18.50;75.10;;;;;;4946216;28;20211;-74
2023/07/01 00:13:33;;;;;;;6.10;3.17;;;18.40;75.10;;;;;;4947276;29;20440;-73
2023/07/01 00:15:59;;;;;;;5.20;3.90;;;18.40;75.50;;;;;;4953853;28;20435;-73
2023/07/01 00:18:25;;;;;;;5.47;3.13;;;18.30;75.80;;;;;;4954515;28;20956;-74
2023/07/01 00:20:51;;;;;;;7.23;3.57;;;18.20;76.10;;;;;;4944118;29;20468;-73
2023/07/01 00:23:17;;;;;;;7.80;3.90;;;18.10;76.20;;;;;;4950606;29;20461;-73
2023/07/01 00:25:43;;;;;;;4.97;3.33;;;18.00;76.40;;;;;;4953038;28;21000;-73
2023/07/01 00:28:09;;;;;;;11.57;4.90;;;18.00;76.40;;;;;;4955746;28;20709;-74
2023/07/01 00:30:34;;;;;;;5.13;3.00;;;17.90;76.70;;;;;;4940006;29;20210;-73
2023/07/01 00:33:01;;;;;;;8.53;3.17;;;17.80;77.30;;;;;;4949225;29;20389;-72
2023/07/01 00:35:27;;;;;;;8.23;3.37;;;17.80;77.40;;;;;;4953784;28;20205;-75
2023/07/01 00:37:52;;;;;;;4.00;3.23;;;17.70;77.40;;;;;;4954349;28;20435;-72
2023/07/01 00:40:18;;;;;;;5.37;3.20;;;17.70;77.60;;;;;;4948751;29;20258;-73
2023/07/01 00:42:45;;;;;;;7.57;3.53;;;17.60;77.60;;;;;;4950468;29;20195;-73
2023/07/01 00:45:11;;;;;;;5.70;3.63;;;17.60;77.60;;;;;;4955670;29;20224;-73
2023/07/01 00:47:40;;;;;;;7.30;3.30;;;17.50;77.40;;;;;;4956301;29;20438;-73
2023/07/01 00:50:10;;;;;;;5.73;3.10;;;17.50;77.40;;;;;;4951044;28;20235;-73
2023/07/01 00:52:37;;;;;;;5.63;3.00;;;17.50;77.30;;;;;;4953567;29;20442;-72
2023/07/01 00:55:03;;;;;;;6.67;2.83;;;17.50;77.30;;;;;;4955556;28;20531;-72
2023/07/01 00:57:29;;;;;;;5.90;2.90;;;17.50;77.30;;;;;;4955168;28;20757;-72
2023/07/01 00:59:55;;;;;;;5.83;2.87;;;17.40;77.30;;;;;;4953130;29;20551;-74
2023/07/01 01:02:29;;;;;;;5.07;3.00;;;17.50;77.40;;;;;;4956976;28;20187;-72
2023/07/01 01:05:11;;;;;;;5.90;3.50;;;17.50;77.10;;;;;;4959956;28;20230;-72
2023/07/01 01:07:42;;;;;;;7.83;3.43;;;17.40;77.30;;;;;;4952865;29;20459;-72
2023/07/01 01:10:20;;;;;;;5.80;3.50;;;17.40;77.30;;;;;;4949041;29;21019;-71
2023/07/01 01:12:46;;;;;;;6.93;3.30;;;17.30;77.60;;;;;;4948695;28;20420;-73
2023/07/01 01:15:12;;;;;;;6.23;3.77;;;17.30;77.70;;;;;;4954045;28;20434;-73
2023/07/01 01:17:40;;;;;;;7.17;3.07;;;17.30;77.80;;;;;;4954034;28;20825;-72
2023/07/01 01:20:12;;;;;;;6.03;3.20;;;17.20;78.00;;;;;;4949761;28;20712;-71
2023/07/01 01:23:03;;;;;;;5.43;3.30;;;17.20;78.00;;;;;;4949286;29;20424;-72
2023/07/01 01:25:45;;;;;;;5.00;2.97;;;17.20;78.00;;;;;;4952859;29;20537;-72
2023/07/01 01:28:12;;;;;;;6.70;2.80;;;17.20;77.80;;;;;;4952567;29;20555;-72
2023/07/01 01:30:38;;;;;;;6.27;3.27;;;17.20;78.00;;;;;;4940634;29;21029;-73
2023/07/01 01:33:05;;;;;;;5.77;3.20;;;17.20;78.10;;;;;;4952730;28;20931;-72
2023/07/01 01:35:31;;;;;;;4.63;3.13;;;17.10;78.10;;;;;;4947785;29;20530;-72
2023/07/01 01:38:20;;;;;;;6.73;3.30;;;17.20;78.10;;;;;;4952547;28;20585;-73
2023/07/01 01:40:56;;;;;;;4.83;2.30;;;17.20;77.40;;;;;;4945998;29;20215;-71
2023/07/01 01:43:34;;;;;;;3.87;2.83;;;17.20;77.60;;;;;;4953322;28;20430;-72
2023/07/01 01:46:01;;;;;;;5.80;3.40;;;17.20;77.60;;;;;;4953044;28;20794;-73
2023/07/01 01:48:27;;;;;;;5.03;3.33;;;17.20;77.70;;;;;;4953262;28;20436;-72
2023/07/01 01:50:54;;;;;;;5.13;3.70;;;17.20;78.00;;;;;;4948476;28;20629;-73
2023/07/01 01:53:22;;;;;;;4.90;3.10;;;17.20;78.10;;;;;;4951870;28;20426;-72
2023/07/01 01:55:48;;;;;;;5.90;3.00;;;17.20;78.10;;;;;;4951941;28;20438;-73
2023/07/01 01:58:14;;;;;;;6.53;3.40;;;17.30;78.10;;;;;;4953157;29;20422;-73
2023/07/01 02:00:40;;;;;;;5.10;3.37;;;17.20;78.00;;;;;;4950220;28;20467;-72
2023/07/01 02:03:05;;;;;;;4.50;2.93;;;17.10;78.70;;;;;;4954706;29;20576;-72
2023/07/01 02:05:31;;;;;;;5.27;3.43;;;17.10;78.90;;;;;;4954905;29;20226;-71
2023/07/01 02:08:01;;;;;;;6.00;3.03;;;17.20;78.90;;;;;;4954390;28;20284;-72
2023/07/01 02:10:28;;;;;;;5.43;3.63;;;17.20;78.70;;;;;;4946235;29;20227;-72
2023/07/01 02:12:53;;;;;;;4.67;3.23;;;17.20;78.90;;;;;;4955616;28;20440;-72
2023/07/01 02:15:19;;;;;;;4.87;3.10;;;17.10;79.20;;;;;;4955692;29;20431;-72
2023/07/01 02:17:45;;;;;;;5.03;3.50;;;17.00;79.50;;;;;;4955754;29;20283;-74
2023/07/01 02:20:11;;;;;;;5.47;3.70;;;17.00;79.60;;;;;;4950479;29;20206;-72
2023/07/01 02:22:37;;;;;;;3.80;2.73;;;17.00;79.90;;;;;;4954966;28;20190;-74
2023/07/01 02:25:03;;;;;;;6.37;4.03;;;17.00;80.00;;;;;;4955471;28;20558;-73
2023/07/01 02:27:30;;;;;;;6.83;4.00;;;17.00;80.20;;;;;;4941560;29;20757;-72
2023/07/01 02:29:57;;;;;;;6.97;4.10;;;17.00;80.20;;;;;;4942425;29;21023;-72
2023/07/01 02:32:23;;;;;;;6.43;3.73;;;16.90;80.30;;;;;;4958581;29;20434;-72
2023/07/01 02:34:49;;;;;;;5.97;3.77;;;16.80;80.60;;;;;;4956478;28;20491;-72
2023/07/01 02:37:14;;;;;;;6.63;4.00;;;16.90;80.60;;;;;;4959363;28;20435;-72
2023/07/01 02:39:40;;;;;;;5.10;3.40;;;16.80;80.80;;;;;;4955219;29;20809;-73
2023/07/01 02:42:06;;;;;;;4.97;3.30;;;16.70;81.10;;;;;;4960331;29;20187;-71
2023/07/01 02:44:31;;;;;;;5.70;3.60;;;16.70;81.40;;;;;;4958010;29;20355;-71
2023/07/01 02:46:57;;;;;;;6.57;3.60;;;16.70;81.50;;;;;;4955408;28;20529;-71
2023/07/01 02:49:23;;;;;;;5.90;3.80;;;16.60;81.50;;;;;;4953784;29;20199;-73
2023/07/01 02:51:48;;;;;;;4.93;3.30;;;16.60;81.80;;;;;;4952143;28;20675;-73
2023/07/01 02:54:14;;;;;;;4.97;3.70;;;16.60;81.80;;;;;;4955051;29;20286;-74
2023/07/01 02:56:40;;;;;;;6.57;3.80;;;16.60;81.70;;;;;;4958196;28;20269;-72
2023/07/01 02:59:05;;;;;;;7.43;4.03;;;16.60;81.70;;;;;;4954540;29;20197;-73
2023/07/01 03:01:31;;;;;;;6.77;3.63;;;16.60;81.70;;;;;;4950377;29;20720;-75
2023/07/01 03:03:56;;;;;;;9.67;3.60;;;16.50;81.90;;;;;;4954954;29;20234;-74
2023/07/01 03:06:22;;;;;;;5.23;3.70;;;16.60;81.90;;;;;;4955179;29;20234;-73
2023/07/01 03:08:48;;;;;;;5.63;3.30;;;16.60;81.90;;;;;;4955947;29;20198;-73
2023/07/01 03:11:13;;;;;;;5.97;3.37;;;16.60;81.90;;;;;;4952673;29;20210;-73
2023/07/01 03:13:39;;;;;;;6.10;3.40;;;16.60;82.10;;;;;;4955288;29;20191;-73
2023/07/01 03:16:08;;;;;;;6.70;3.93;;;16.60;81.90;;;;;;4956480;28;20206;-74
2023/07/01 03:18:34;;;;;;;7.23;3.67;;;16.70;81.80;;;;;;4955459;28;20198;-72
2023/07/01 03:21:00;;;;;;;7.40;3.90;;;16.60;81.80;;;;;;4950855;29;20471;-73
2023/07/01 03:23:30;;;;;;;7.50;4.27;;;16.70;81.80;;;;;;4955938;28;20192;-74
2023/07/01 03:25:56;;;;;;;6.00;3.90;;;16.70;81.70;;;;;;4955532;29;20468;-73
2023/07/01 03:28:21;;;;;;;7.70;3.87;;;16.60;81.80;;;;;;4958686;28;20450;-74
2023/07/01 03:30:47;;;;;;;10.00;4.00;;;16.60;81.80;;;;;;4953387;28;20489;-73
2023/07/01 03:33:13;;;;;;;9.03;4.00;;;16.60;81.80;;;;;;4954813;29;20195;-74
2023/07/01 03:35:39;;;;;;;5.80;3.40;;;16.60;81.80;;;;;;4955486;28;20196;-75
2023/07/01 03:38:04;;;;;;;6.47;3.63;;;16.60;81.40;;;;;;4955691;28;20198;-74
2023/07/01 03:40:30;;;;;;;5.20;3.80;;;16.50;81.40;;;;;;4950842;28;20208;-72
2023/07/01 03:42:56;;;;;;;7.37;3.73;;;16.50;81.50;;;;;;4956419;28;20233;-77
2023/07/01 03:45:22;;;;;;;8.10;3.67;;;16.60;81.40;;;;;;4956799;28;20514;-74
2023/07/01 03:47:48;;;;;;;5.53;3.63;;;16.60;81.20;;;;;;4956216;28;20219;-74
2023/07/01 03:50:14;;;;;;;4.70;3.30;;;16.60;81.20;;;;;;4950709;28;20863;-74
2023/07/01 03:52:41;;;;;;;6.47;4.10;;;16.60;81.10;;;;;;4954312;28;20190;-73
2023/07/01 03:55:11;;;;;;;10.83;4.77;;;16.60;80.90;;;;;;4955104;28;20450;-73
2023/07/01 03:57:37;;;;;;;7.50;3.90;;;16.60;80.90;;;;;;4949548;28;20441;-73
2023/07/01 04:00:08;;;;;;;7.30;4.40;;;16.70;80.90;;;;;;4953638;29;20474;-73
2023/07/01 04:02:37;;;;;;;6.13;4.23;;;16.70;80.80;;;;;;4952694;28;20431;-73
2023/07/01 04:05:09;;;;;;;6.90;4.00;;;16.70;80.60;;;;;;4955058;28;20996;-73
2023/07/01 04:07:36;;;;;;;4.23;3.30;;;16.60;80.60;;;;;;4949440;28;20525;-74
2023/07/01 04:10:05;;;;;;;6.93;3.60;;;16.60;80.80;;;;;;4951896;28;20530;-74
2023/07/01 04:12:34;;;;;;;5.53;3.57;;;16.60;80.80;;;;;;4954716;28;20439;-72
2023/07/01 04:15:01;;;;;;;8.57;4.20;;;16.60;80.80;;;;;;4954706;28;20501;-75
2023/07/01 04:17:29;;;;;;;6.53;4.20;;;16.60;80.60;;;;;;4954155;28;20434;-73
2023/07/01 04:19:56;;;;;;;6.27;3.67;;;16.60;80.60;;;;;;4950154;28;20992;-73
2023/07/01 04:22:22;;;;;;;5.63;4.00;;;16.60;80.80;;;;;;4947964;29;20447;-74
2023/07/01 04:24:48;;;;;;;5.40;3.67;;;16.60;80.80;;;;;;4954588;28;20478;-74
2023/07/01 04:27:14;;;;;;;4.90;3.80;;;16.70;80.80;;;;;;4955528;28;20434;-75
2023/07/01 04:29:39;;;;;;;7.87;3.97;;;16.70;80.50;;;;;;4956289;28;20225;-74
2023/07/01 04:32:05;;;;;;;7.80;4.03;;;16.80;80.20;;;;;;4951227;28;20288;-75
2023/07/01 04:34:31;;;;;;;5.97;3.80;;;16.80;79.90;;;;;;4955372;28;20203;-75
2023/07/01 04:36:56;;;;;;;5.43;3.60;;;16.80;79.70;;;;;;4957152;29;20649;-74
2023/07/01 04:39:23;;;;;;;9.80;4.27;;;16.90;79.50;;;;;;4955192;28;20206;-73
2023/07/01 04:41:49;;;;;;;8.53;4.27;;;16.90;79.70;;;;;;4955959;29;20187;-73
2023/07/01 04:44:15;;;;;;;7.77;4.67;;;16.90;79.90;;;;;;4955166;29;20493;-72
2023/07/01 04:46:40;;;;;;;7.53;3.67;;;17.00;80.20;;;;;;4954421;29;20904;-74
2023/07/01 04:49:08;;;;;;;6.50;3.50;;;17.10;79.60;;;;;;4955132;29;20191;-72
2023/07/01 04:51:37;;;;;;;7.33;4.10;;;17.20;79.20;;;;;;4949632;28;20569;-74
2023/07/01 04:54:04;;;;;;;5.40;4.00;;;17.20;79.30;;;;;;4956033;28;20435;-73
2023/07/01 04:56:30;;;;;;;5.67;3.77;;;17.10;79.20;;;;;;4957058;28;20449;-74
2023/07/01 04:58:55;;;;;;;8.43;3.97;;;16.90;80.00;;;;;;4956450;29;20430;-74
2023/07/01 05:01:21;;;;;;;5.27;3.60;;;16.80;80.60;;;;;;4952093;28;20459;-73
2023/07/01 05:03:46;;;;;;;6.40;4.10;;;16.80;80.60;;;;;;4956619;28;20268;-74
2023/07/01 05:06:12;;;;;;;5.73;3.63;;;16.80;80.60;;;;;;4957441;29;20253;-73
2023/07/01 05:08:38;;;;;;;4.90;3.50;;;16.90;80.30;;;;;;4955547;29;20596;-74
2023/07/01 05:11:03;;;;;;;6.67;4.23;;;17.00;79.90;;;;;;4944412;29;20215;-75
2023/07/01 05:13:29;;;;;;;6.70;4.37;;;17.00;79.70;;;;;;4947181;29;20184;-73
2023/07/01 05:15:55;;;;;;;7.67;4.53;;;17.10;79.30;;;;;;4956533;29;20195;-74
2023/07/01 05:18:20;;;;;;;6.47;4.10;;;17.10;79.00;;;;;;4950917;29;20194;-75
2023/07/01 05:20:46;;;;;;;6.30;3.50;;;17.20;78.90;;;;;;4948068;29;20212;-75
2023/07/01 05:23:12;;;;;;;8.33;3.93;;;17.20;78.60;;;;;;4956733;29;20198;-73
2023/07/01 05:25:38;;;;;;;7.93;3.47;;;17.20;78.60;;;;;;4956977;28;20231;-75
2023/07/01 05:28:04;;;;;;;10.40;4.30;;;17.20;78.60;;;;;;4956124;28;20787;-75
2023/07/01 05:30:29;;;;;;;5.73;4.23;;;17.20;78.30;;;;;;4939724;29;20220;-73
2023/07/01 05:32:55;;;;;;;7.23;4.73;;;17.30;78.10;;;;;;4949417;29;20439;-73
2023/07/01 05:35:21;;;;;;;7.23;4.20;;;17.40;77.70;;;;;;4955574;29;20740;-75
2023/07/01 05:37:46;;;;;;;7.00;4.20;;;17.50;77.10;;;;;;4955841;28;20201;-74
2023/07/01 05:40:12;;;;;;;9.03;4.03;;;17.50;76.80;;;;;;4948315;29;20418;-73
2023/07/01 05:42:38;;;;;;;8.23;4.03;;;17.60;76.50;;;;;;4950301;28;20195;-73
2023/07/01 05:45:05;;;;;;;5.47;4.10;;;17.60;75.50;;;;;;4955159;28;20231;-74
2023/07/01 05:47:31;;;;;;;6.23;3.43;;;17.70;75.50;;;;;;4957906;29;20438;-74
2023/07/01 05:49:56;;;;;;;6.90;4.40;;;17.70;75.20;;;;;;4962768;28;20854;-73
2023/07/01 05:52:22;;;;;;;6.70;3.33;;;17.80;74.60;;;;;;4964244;28;20434;-73
2023/07/01 05:54:48;;;;;;;5.60;3.60;;;17.90;73.90;;;;;;4970553;29;20658;-74
2023/07/01 05:57:14;;;;;;;7.83;4.37;;;18.00;72.70;;;;;;4971035;28;20189;-74
2023/07/01 05:59:40;;;;;;;8.43;4.60;;;18.00;73.20;;;;;;4957900;28;20298;-74
2023/07/01 06:02:06;;;;;;;7.30;3.73;;;18.10;73.30;;;;;;4958397;28;20436;-75
2023/07/01 06:04:31;;;;;;;5.40;3.60;;;18.20;72.10;;;;;;4957917;28;20229;-74
2023/07/01 06:06:57;;;;;;;6.50;3.70;;;18.20;72.30;;;;;;4957909;29;21205;-73
2023/07/01 06:09:22;;;;;;;5.90;3.40;;;18.30;71.80;;;;;;4955856;28;20206;-74
2023/07/01 06:11:48;;;;;;;5.57;3.33;;;18.30;71.40;;;;;;4952082;29;20207;-73
2023/07/01 06:14:14;;;;;;;7.53;3.67;;;18.40;71.00;;;;;;4957747;28;20197;-76
2023/07/01 06:16:40;;;;;;;6.03;3.47;;;18.50;70.40;;;;;;4956107;29;20263;-74
2023/07/01 06:19:05;;;;;;;9.00;3.53;;;18.50;69.90;;;;;;4955855;29;20439;-72
2023/07/01 06:21:31;;;;;;;8.70;3.60;;;18.60;69.90;;;;;;4951940;28;20617;-74
2023/07/01 06:23:56;;;;;;;6.57;3.70;;;18.70;69.50;;;;;;4956016;29;20564;-74
2023/07/01 06:26:22;;;;;;;7.00;3.10;;;18.80;69.10;;;;;;4956716;29;20714;-74
2023/07/01 06:28:48;;;;;;;4.20;3.20;;;18.80;67.90;;;;;;4957633;29;20197;-74
2023/07/01 06:31:14;;;;;;;6.73;3.37;;;18.80;68.00;;;;;;4953959;28;20580;-76
2023/07/01 06:33:39;;;;;;;5.13;2.93;;;18.90;67.50;;;;;;4955604;29;20280;-74
2023/07/01 06:36:06;;;;;;;5.83;3.40;;;18.90;67.60;;;;;;4957879;28;20204;-75
2023/07/01 06:38:31;;;;;;;6.53;3.23;;;19.00;66.90;;;;;;4956688;28;20623;-76
2023/07/01 06:40:57;;;;;;;5.97;3.43;;;19.00;66.30;;;;;;4949544;28;20467;-75
2023/07/01 06:43:22;;;;;;;5.17;3.63;;;19.00;66.90;;;;;;4951041;29;20201;-78
2023/07/01 06:45:48;;;;;;;5.60;2.80;;;19.10;65.80;;;;;;4961339;28;20280;-79
2023/07/01 06:48:13;;;;;;;5.23;3.37;;;19.10;66.90;;;;;;4959495;28;20198;-79
2023/07/01 06:50:39;;;;;;;4.80;3.00;;;19.20;66.40;;;;;;4954443;28;20223;-81
2023/07/01 06:53:06;;;;;;;4.27;2.87;;;19.30;66.40;;;;;;4958148;28;20189;-79
2023/07/01 06:55:32;;;;;;;7.10;3.10;;;19.40;65.70;;;;;;4963623;28;20189;-79
2023/07/01 06:57:59;;;;;;;3.10;2.93;;;19.40;65.60;;;;;;4959014;28;20516;-80
2023/07/01 07:00:25;;;;;;;4.10;2.57;;;19.40;65.40;;;;;;4956202;28;20473;-80
2023/07/01 07:02:51;;;;;;;8.20;3.07;;;19.50;65.40;;;;;;4953901;29;20433;-80
2023/07/01 07:05:16;;;;;;;6.90;3.30;;;19.60;65.40;;;;;;4955307;28;20234;-80
2023/07/01 07:07:42;;;;;;;4.60;2.47;;;19.60;65.80;;;;;;4956210;29;20203;-80
2023/07/01 07:10:08;;;;;;;6.13;2.77;;;19.80;63.80;;;;;;4948659;29;20266;-78
2023/07/01 07:12:33;;;;;;;7.47;2.90;;;19.80;64.80;;;;;;4959901;29;20219;-78
2023/07/01 07:14:59;;;;;;;11.60;3.20;;;19.90;63.80;;;;;;4962691;29;20454;-79
2023/07/01 07:17:25;;;;;;;8.90;3.70;;;19.90;63.90;;;;;;4957481;29;20200;-77
2023/07/01 07:19:50;;;;;;;5.83;3.37;;;20.00;64.50;;;;;;4952953;29;20225;-78
2023/07/01 07:22:16;;;;;;;4.70;3.77;;;20.10;64.20;;;;;;4950774;29;20197;-79
2023/07/01 07:24:41;;;;;;;5.40;2.67;;;20.00;64.50;;;;;;4949744;29;20539;-80
2023/07/01 07:27:07;;;;;;;8.43;3.90;;;20.20;64.20;;;;;;4953624;29;20187;-78
2023/07/01 07:29:33;;;;;;;5.30;2.50;;;20.20;62.00;;;;;;4952653;28;20223;-80
2023/07/01 07:31:59;;;;;;;5.23;2.43;;;20.30;61.30;;;;;;4954970;28;20621;-78
2023/07/01 07:34:25;;;;;;;4.50;2.43;;;20.40;60.70;;;;;;4955263;28;20443;-78
2023/07/01 07:36:52;;;;;;;8.43;3.63;;;20.40;61.20;;;;;;4953797;28;21003;-78
2023/07/01 07:39:18;;;;;;;3.20;2.60;;;20.50;61.60;;;;;;4952966;28;20451;-79
2023/07/01 07:41:44;;;;;;;4.07;2.63;;;20.70;61.70;;;;;;4947540;29;20945;-81
2023/07/01 07:44:10;;;;;;;11.43;4.30;;;21.00;61.50;;;;;;4954577;29;20491;-79
2023/07/01 07:46:38;;;;;;;4.17;2.83;;;21.00;61.00;;;;;;4958151;29;20439;-79
2023/07/01 07:49:04;;;;;;;5.20;2.60;;;21.30;60.60;;;;;;4960893;28;20519;-80
2023/07/01 07:51:30;;;;;;;5.30;3.00;;;21.20;60.70;;;;;;4960651;28;20490;-80
2023/07/01 07:53:56;;;;;;;4.40;3.00;;;21.30;60.60;;;;;;4958613;28;20424;-78
2023/07/01 07:56:22;;;;;;;4.67;3.13;;;21.30;59.50;;;;;;4954729;29;21034;-82
2023/07/01 07:58:48;;;;;;;6.30;3.50;;;21.40;59.60;;;;;;4955479;28;20237;-79
2023/07/01 08:01:14;;;;;;;5.20;2.63;;;21.40;59.30;;;;;;4953054;28;20823;-79
2023/07/01 08:03:40;;;;;;;7.03;2.60;;;21.40;59.90;;;;;;4950995;28;21013;-79
2023/07/01 08:06:06;;;;;;;5.07;3.13;;;21.40;59.50;;;;;;4956152;28;20998;-80
2023/07/01 08:08:32;;;;;;;6.10;2.83;;;21.50;60.10;;;;;;4956423;28;20956;-78
2023/07/01 08:10:59;;;;;;;5.23;3.70;;;21.60;59.90;;;;;;4950689;28;20511;-78
2023/07/01 08:13:25;;;;;;;7.27;3.40;;;21.50;60.30;;;;;;4945680;29;20440;-77
2023/07/01 08:15:50;;;;;;;5.47;3.37;;;21.50;61.00;;;;;;4958422;29;20955;-79
2023/07/01 08:18:16;;;;;;;6.23;3.37;;;21.60;61.20;;;;;;4960785;29;20485;-78
2023/07/01 08:20:43;;;;;;;4.43;3.13;;;21.80;61.20;;;;;;4956026;29;20226;-81
2023/07/01 08:23:09;;;;;;;4.00;3.13;;;21.90;60.70;;;;;;4958232;29;20193;-80
2023/07/01 08:25:35;;;;;;;6.50;2.90;;;22.00;59.90;;;;;;4962262;29;20571;-80
2023/07/01 08:28:00;;;;;;;5.80;2.97;;;22.00;59.90;;;;;;4953444;28;20735;-77
2023/07/01 08:30:26;;;;;;;4.90;3.30;;;21.90;59.30;;;;;;4944991;29;20238;-76
2023/07/01 08:32:51;;;;;;;4.80;3.07;;;21.80;59.50;;;;;;4952887;28;20735;-79
2023/07/01 08:35:17;;;;;;;5.47;3.30;;;21.60;60.10;;;;;;4952930;28;20197;-76
2023/07/01 08:37:43;;;;;;;6.70;3.33;;;21.60;60.30;;;;;;4956479;28;20197;-76
2023/07/01 08:40:09;;;;;;;8.07;3.20;;;21.60;60.30;;;;;;4949203;28;20617;-78
2023/07/01 08:42:48;;;;;;;7.07;3.63;;;21.50;60.00;;;;;;4952652;28;20439;-78
2023/07/01 08:45:14;;;;;;;5.27;3.53;;;21.40;60.60;;;;;;4954973;29;20496;-78
2023/07/01 08:47:40;;;;;;;4.83;3.27;;;21.40;60.90;;;;;;4953627;29;20468;-77
2023/07/01 08:50:07;;;;;;;5.40;3.20;;;21.40;61.30;;;;;;4951371;28;20488;-78
2023/07/01 08:52:41;;;;;;;6.30;3.20;;;21.50;61.30;;;;;;4951849;29;20429;-77
2023/07/01 08:55:13;;;;;;;4.10;3.20;;;21.60;61.70;;;;;;4951373;28;20425;-77
2023/07/01 08:57:40;;;;;;;5.00;3.70;;;21.70;60.70;;;;;;4945172;28;20483;-78
2023/07/01 09:00:12;;;;;;;4.40;3.10;;;21.80;60.90;;;;;;4945884;28;20491;-77
2023/07/01 09:02:39;;;;;;;9.47;2.93;;;21.90;59.10;;;;;;4946197;28;20438;-75
2023/07/01 09:05:05;;;;;;;4.03;3.30;;;21.90;57.70;;;;;;4953616;28;20974;-75
2023/07/01 09:07:31;;;;;;;5.23;3.10;;;21.90;57.80;;;;;;4956193;28;20438;-75
2023/07/01 09:09:57;;;;;;;3.50;2.60;;;22.00;57.70;;;;;;4950015;28;20564;-74
2023/07/01 09:12:30;;;;;;;6.00;3.40;;;22.00;57.70;;;;;;4944579;29;20190;-77
2023/07/01 09:15:08;;;;;;;8.73;3.40;;;22.20;57.70;;;;;;4955994;28;20459;-76
2023/07/01 09:17:36;;;;;;;4.20;3.07;;;22.30;57.70;;;;;;4953437;28;20449;-76
2023/07/01 09:20:06;;;;;;;3.17;2.50;;;22.20;57.30;;;;;;4949629;28;20467;-75
2023/07/01 09:22:33;;;;;;;4.60;3.27;;;22.20;55.70;;;;;;4952140;28;20477;-74
2023/07/01 09:24:59;;;;;;;4.67;3.30;;;22.20;55.40;;;;;;4956356;28;20608;-74
2023/07/01 09:27:38;;;;;;;5.03;3.30;;;22.10;55.20;;;;;;4961267;29;20435;-75
2023/07/01 09:30:20;;;;;;;3.70;2.73;;;22.20;55.30;;;;;;4953074;29;20207;-73
2023/07/01 09:32:46;;;;;;;10.47;3.10;;;22.40;55.30;;;;;;4955183;29;20467;-75
2023/07/01 09:35:12;;;;;;;7.23;2.93;;;22.50;53.70;;;;;;4960826;28;20559;-75
2023/07/01 09:37:38;;;;;;;5.97;3.20;;;22.60;52.90;;;;;;4961113;28;20947;-74
2023/07/01 09:40:19;;;;;;;3.57;2.87;;;22.60;52.40;;;;;;4956672;28;21008;-75
2023/07/01 09:42:52;;;;;;;4.17;2.60;;;22.60;52.90;;;;;;4963871;29;20419;-75
2023/07/01 09:45:18;;;;;;;4.30;2.33;;;22.80;52.80;;;;;;4965284;28;20985;-75
2023/07/01 09:47:43;;;;;;;4.83;2.60;;;22.90;52.00;;;;;;4966679;28;20454;-75
2023/07/01 09:50:26;;;;;;;4.13;2.73;;;22.80;51.30;;;;;;4956693;29;20222;-74
2023/07/01 09:52:53;;;;;;;3.43;2.70;;;22.90;50.30;;;;;;4960410;28;20187;-75
2023/07/01 09:55:19;;;;;;;5.33;2.80;;;22.90;49.80;;;;;;4960392;28;20439;-74
2023/07/01 09:57:45;;;;;;;4.70;3.07;;;22.90;50.20;;;;;;4961055;28;20446;-75
2023/07/01 10:00:15;;;;;;;2.73;2.23;;;22.90;50.20;;;;;;4958333;28;20494;-76
2023/07/01 10:02:43;;;;;;;5.33;2.70;;;23.00;49.50;;;;;;4951867;29;20436;-75
2023/07/01 10:05:08;;;;;;;5.37;3.17;;;22.90;48.60;;;;;;4961168;28;20514;-74
2023/07/01 10:07:34;;;;;;;4.50;2.70;;;23.10;47.50;;;;;;4963737;29;20882;-74
2023/07/01 10:10:00;;;;;;;4.40;2.60;;;23.40;47.30;;;;;;4956870;29;20220;-75
2023/07/01 10:12:27;;;;;;;4.83;2.47;;;23.40;46.90;;;;;;4951541;29;20210;-73
2023/07/01 10:14:54;;;;;;;4.50;3.00;;;23.40;46.70;;;;;;4952844;28;20436;-75
2023/07/01 10:17:20;;;;;;;5.63;2.77;;;23.40;47.00;;;;;;4954727;28;20428;-75
2023/07/01 10:19:46;;;;;;;4.60;2.70;;;23.50;47.30;;;;;;4950049;29;20464;-75
2023/07/01 10:22:29;;;;;;;5.43;3.00;;;23.80;47.80;;;;;;4946919;28;20194;-73
2023/07/01 10:25:06;;;;;;;5.70;3.00;;;24.10;46.70;;;;;;4952907;28;20987;-74
2023/07/01 10:27:44;;;;;;;7.70;3.27;;;24.20;46.50;;;;;;4952858;28;20444;-73
2023/07/01 10:30:13;;;;;;;7.10;3.00;;;24.20;47.40;;;;;;4948547;28;20477;-74
2023/07/01 10:32:39;;;;;;;5.37;2.83;;;24.20;46.10;;;;;;4954293;29;20425;-74
2023/07/01 10:35:04;;;;;;;4.50;2.70;;;24.20;46.10;;;;;;4955677;28;20476;-75
2023/07/01 10:37:32;;;;;;;4.10;2.50;;;24.20;45.50;;;;;;4955751;29;20470;-76
2023/07/01 10:39:59;;;;;;;5.97;2.83;;;24.20;45.30;;;;;;4951510;28;20771;-75
2023/07/01 10:42:33;;;;;;;4.93;2.90;;;24.30;44.70;;;;;;4951004;29;20876;-75
2023/07/01 10:45:11;;;;;;;3.63;2.70;;;24.50;45.10;;;;;;4955516;28;20612;-76
2023/07/01 10:48:02;;;;;;;4.70;2.77;;;24.40;45.80;;;;;;4956286;28;20454;-76
2023/07/01 10:50:28;;;;;;;6.23;3.20;;;24.30;46.20;;;;;;4945332;29;20494;-77
2023/07/01 10:52:57;;;;;;;3.80;2.63;;;24.20;46.60;;;;;;4955678;28;20428;-76
2023/07/01 10:55:49;;;;;;;7.37;2.90;;;24.30;46.60;;;;;;4956228;28;20278;-75
2023/07/01 10:58:24;;;;;;;5.70;2.63;;;24.00;46.20;;;;;;4948700;29;20471;-75
2023/07/01 11:00:52;;;;;;;7.57;2.90;;;24.20;45.70;;;;;;4950749;29;20472;-75
2023/07/01 11:03:34;;;;;;;5.37;2.90;;;24.20;45.80;;;;;;4950597;29;20433;-75
2023/07/01 11:06:06;;;;;;;5.93;2.53;;;24.50;44.90;;;;;;4950646;29;20525;-76
2023/07/01 11:08:47;;;;;;;5.37;3.10;;;24.50;45.00;;;;;;4955371;28;20513;-75
2023/07/01 11:11:28;;;;;;;7.57;3.93;;;24.60;45.00;;;;;;4951405;28;20946;-75
2023/07/01 11:13:55;;;;;;;4.73;2.97;;;24.60;45.10;;;;;;4950704;28;20810;-75
2023/07/01 11:16:21;;;;;;;2.90;2.53;;;24.60;45.90;;;;;;4955261;28;20426;-75
2023/07/01 11:18:51;;;;;;;6.10;3.40;;;24.40;46.10;;;;;;4955250;28;20802;-75
2023/07/01 11:21:22;;;;;;;4.57;3.00;;;24.30;46.10;;;;;;4950831;28;20221;-76
2023/07/01 11:23:53;;;;;;;5.30;3.60;;;24.20;46.20;;;;;;4950320;28;20441;-75
2023/07/01 11:26:23;;;;;;;8.83;3.20;;;24.60;45.30;;;;;;4955108;29;20970;-75
2023/07/01 11:28:49;;;;;;;7.80;4.03;;;24.40;45.70;;;;;;4955757;28;20427;-76
2023/07/01 11:31:16;;;;;;;4.40;2.90;;;24.20;46.30;;;;;;4950233;28;21057;-75
2023/07/01 11:33:46;;;;;;;6.57;3.57;;;24.40;45.80;;;;;;4954648;28;20198;-76
2023/07/01 11:36:17;;;;;;;4.87;2.97;;;24.30;46.20;;;;;;4955202;28;20461;-75
2023/07/01 11:38:47;;;;;;;6.50;3.20;;;24.30;46.60;;;;;;4957666;28;20536;-75
2023/07/01 11:41:17;;;;;;;10.67;3.90;;;24.40;46.70;;;;;;4948637;28;20504;-74
2023/07/01 11:43:43;;;;;;;5.80;3.70;;;24.30;47.10;;;;;;4959690;28;20438;-75
2023/07/01 11:46:12;;;;;;;6.97;3.57;;;24.30;47.10;;;;;;4951621;28;20619;-75
2023/07/01 11:48:39;;;;;;;4.77;3.03;;;24.60;46.30;;;;;;4955396;28;20433;-76
2023/07/01 11:51:04;;;;;;;8.03;3.50;;;24.70;46.20;;;;;;4950201;28;20510;-74
2023/07/01 11:53:30;;;;;;;9.67;3.90;;;24.50;46.30;;;;;;4955912;29;20459;-75
2023/07/01 11:55:56;;;;;;;8.40;3.40;;;24.20;47.00;;;;;;4956512;29;20194;-76
2023/07/01 11:58:32;;;;;;;5.90;3.77;;;24.10;48.20;;;;;;4957077;28;20228;-75
2023/07/01 12:00:58;;;;;;;7.60;3.10;;;24.40;47.90;;;;;;4950759;28;21055;-75
2023/07/01 12:03:31;;;;;;;5.67;3.17;;;24.60;47.10;;;;;;4954059;29;20943;-75
2023/07/01 12:05:57;;;;;;;5.63;3.47;;;24.80;46.30;;;;;;4954396;29;20490;-76
2023/07/01 12:08:23;;;;;;;8.30;3.13;;;24.60;47.00;;;;;;4954458;28;20492;-75
2023/07/01 12:10:48;;;;;;;6.77;3.00;;;24.70;45.90;;;;;;4954461;28;20215;-74
2023/07/01 12:13:30;;;;;;;8.03;3.23;;;24.40;47.40;;;;;;4964248;28;20445;-75
2023/07/01 12:15:57;;;;;;;5.30;3.30;;;24.10;48.10;;;;;;4951117;29;20230;-76
2023/07/01 12:18:27;;;;;;;7.23;3.67;;;23.60;50.10;;;;;;4950127;29;20432;-77
2023/07/01 12:20:53;;;;;;;7.40;3.47;;;23.50;50.30;;;;;;4950868;28;20467;-75
2023/07/01 12:23:19;;;;;;;6.47;2.53;;;23.40;50.90;;;;;;4955247;28;20420;-75
2023/07/01 12:25:45;;;;;;;5.73;3.00;;;23.50;51.20;;;;;;4950351;29;20476;-74
2023/07/01 12:28:11;;;;;;;4.00;2.70;;;23.50;51.20;;;;;;4958179;28;20202;-75
2023/07/01 12:30:37;;;;;;;3.97;2.83;;;23.50;51.70;;;;;;4952217;28;20475;-75
2023/07/01 12:33:02;;;;;;;4.80;2.77;;;23.20;52.10;;;;;;4955068;29;20438;-75
2023/07/01 12:35:28;;;;;;;3.80;2.70;;;23.30;52.40;;;;;;4956920;29;20559;-76
2023/07/01 12:37:56;;;;;;;5.13;2.77;;;23.40;52.00;;;;;;4960059;28;20219;-76
2023/07/01 12:40:21;;;;;;;5.10;2.67;;;23.50;52.10;;;;;;4952245;28;20287;-76
2023/07/01 12:42:51;;;;;;;6.97;3.03;;;23.10;52.40;;;;;;4946857;28;20872;-76
2023/07/01 12:45:16;;;;;;;4.50;2.47;;;22.90;53.30;;;;;;4955026;28;20223;-76
2023/07/01 12:47:43;;;;;;;5.67;2.47;;;23.00;54.00;;;;;;4955457;28;20431;-76